Charlottetown, Canada
Current Conditions -  °F | °C
As of 6:00 AM on Thursday 29 Jan 2015 (Local Time) from CYYG Reporting Station
Scattered Clouds Scattered Clouds  
Wind Chill: 12°   Ceiling: Unl
Heat Index: 12°   Visibility: 15mi
Dew Point:   Wind: 3mph
Humidity: 85%   Direction: 290°WNW
Pressure: 30.13"   Gusts: NA
Location:  46.24°N, 63.13°W
Report Text: CYYG 291000Z 29003KT 15SM SCT025 SCT070 M11/M13 A3013 RMK SC3AC1 SLP205
Loading
Personal Weather Stations






























Interactive Weather Map New forecast layout! Learn more

10-Day Weather Forecast

Advertisements
Track Severe Weather on mobile